Time;durP1;ratioP1;P1;durP2;ratioP2;P2;SDS_P1;SDS_P2;PMS_P1;PMS_P2;Temp;Humidity;BMP_temperature;BMP_pressure;BME280_temperature;BME280_humidity;BME280_pressure;Samples;Min_cycle;Max_cycle;Signal;HPM_P1;HPM_P2
2023/07/22 00:01:53;;;;;;;;;9.00;8.33;;;;;18.45;43.42;100959.88;5121589;27;46190;-77
2023/07/22 00:04:19;;;;;;;;;7.00;6.00;;;;;18.40;43.48;100960.25;5139254;27;45379;-77
2023/07/22 00:06:44;;;;;;;;;6.33;6.33;;;;;18.34;43.76;100951.81;5140293;27;45876;-77
2023/07/22 00:09:09;;;;;;;;;12.33;9.00;;;;;18.30;43.81;100942.28;5140173;27;46543;-75
2023/07/22 00:11:35;;;;;;;;;6.00;6.00;;;;;18.49;43.98;100966.69;5140067;27;45877;-77
2023/07/22 00:14:01;;;;;;;;;7.00;5.67;;;;;18.42;43.72;100970.91;5123713;27;45880;-77
2023/07/22 00:16:26;;;;;;;;;6.33;6.33;;;;;18.34;43.91;100962.59;5119306;27;45840;-77
2023/07/22 00:18:53;;;;;;;;;7.00;7.00;;;;;18.25;44.36;100951.63;5101043;27;45638;-77
2023/07/22 00:21:18;;;;;;;;;7.33;7.00;;;;;18.08;44.09;100925.22;5100440;27;47359;-77
2023/07/22 00:23:46;;;;;;;;;6.00;4.67;;;;;18.24;44.12;100957.13;5118091;27;52134;-77
2023/07/22 00:26:11;;;;;;;;;5.33;5.33;;;;;18.20;44.58;100956.50;5100723;27;45257;-77
2023/07/22 00:28:36;;;;;;;;;9.00;8.00;;;;;18.06;44.45;100931.69;5126322;27;45271;-77
2023/07/22 00:31:03;;;;;;;;;9.00;6.67;;;;;18.07;44.51;100934.25;5138768;27;46453;-76
2023/07/22 00:33:28;;;;;;;;;9.00;7.00;;;;;18.21;44.77;100963.59;5120700;27;45519;-76
2023/07/22 00:35:54;;;;;;;;;8.33;6.00;;;;;18.21;44.57;100963.59;5139515;27;45235;-77
2023/07/22 00:38:19;;;;;;;;;8.67;7.33;;;;;18.24;44.59;100957.97;5139912;27;45250;-77
2023/07/22 00:40:45;;;;;;;;;8.00;7.00;;;;;18.18;44.82;100946.84;5138290;27;45319;-77
2023/07/22 00:43:10;;;;;;;;;9.00;7.00;;;;;18.20;44.52;100951.13;5138648;27;45462;-76
2023/07/22 00:45:36;;;;;;;;;9.33;8.00;;;;;18.20;44.70;100956.50;5139800;27;45341;-76
2023/07/22 00:48:04;;;;;;;;;7.67;5.33;;;;;18.17;44.65;100951.38;5119229;27;45746;-76
2023/07/22 00:50:31;;;;;;;;;7.33;6.33;;;;;18.16;44.79;100955.06;5133225;27;45346;-76
2023/07/22 00:52:57;;;;;;;;;6.67;6.67;;;;;18.10;45.10;100960.06;5133278;27;45586;-76
2023/07/22 00:55:23;;;;;;;;;6.67;6.67;;;;;18.04;45.53;100958.75;5118410;27;45368;-76
2023/07/22 00:57:48;;;;;;;;;10.00;8.67;;;;;17.64;45.37;100893.84;5119194;27;45271;-76
2023/07/22 01:00:15;;;;;;;;;6.00;6.00;;;;;17.92;45.38;100946.28;5118134;27;46007;-77
2023/07/22 01:02:42;;;;;;;;;8.33;6.00;;;;;17.89;45.55;100946.53;5101438;27;45361;-76
2023/07/22 01:05:10;;;;;;;;;6.67;5.33;;;;;17.89;45.70;100951.91;5139451;27;45300;-75
2023/07/22 01:07:36;;;;;;;;;7.00;7.00;;;;;17.82;45.73;100945.31;5139508;27;45497;-77
2023/07/22 01:10:03;;;;;;;;;6.67;6.67;;;;;17.71;45.89;100932.75;5139539;27;47516;-76
2023/07/22 01:12:28;;;;;;;;;7.00;7.00;;;;;17.77;46.07;100944.84;5118372;27;45371;-76
2023/07/22 01:14:53;;;;;;;;;8.33;7.00;;;;;17.80;46.28;100947.28;5118482;27;45356;-74
2023/07/22 01:17:19;;;;;;;;;7.33;7.33;;;;;17.77;46.23;100945.69;5118811;27;45246;-76
2023/07/22 01:19:45;;;;;;;;;9.33;8.00;;;;;17.73;45.98;100932.63;5118241;27;47581;-76
2023/07/22 01:22:13;;;;;;;;;7.00;6.67;;;;;17.76;46.18;100935.06;5118398;27;45450;-76
2023/07/22 01:24:38;;;;;;;;;6.00;6.00;;;;;17.82;46.31;100945.31;5136587;27;46461;-74
2023/07/22 01:27:08;;;;;;;;;8.00;8.00;;;;;17.83;46.33;100936.25;5103836;27;45352;-75
2023/07/22 01:29:34;;;;;;;;;7.67;7.67;;;;;17.80;46.41;100931.13;5139282;27;45298;-77
2023/07/22 01:31:59;;;;;;;;;8.00;8.00;;;;;17.85;46.35;100931.63;5138821;27;45259;-77
2023/07/22 01:34:25;;;;;;;;;5.67;5.67;;;;;17.77;46.28;100920.63;5103216;27;45349;-76
2023/07/22 01:36:50;;;;;;;;;8.00;8.00;;;;;17.78;46.56;100916.97;5128222;27;45554;-78
2023/07/22 01:39:18;;;;;;;;;5.67;5.67;;;;;17.79;46.67;100930.28;5120145;27;47317;-76
2023/07/22 01:41:43;;;;;;;;;8.33;7.33;;;;;17.79;46.73;100929.44;5138648;27;45463;-77
2023/07/22 01:44:10;;;;;;;;;6.67;6.67;;;;;17.75;46.88;100928.81;5102506;27;45521;-77
2023/07/22 01:46:36;;;;;;;;;6.33;6.33;;;;;17.73;46.63;100924.56;5118554;27;45645;-77
2023/07/22 01:49:05;;;;;;;;;8.00;7.00;;;;;17.67;46.62;100909.72;5117846;27;46062;-77
2023/07/22 01:51:30;;;;;;;;;8.00;8.00;;;;;17.57;46.78;100900.66;5125030;27;45404;-77
2023/07/22 01:53:56;;;;;;;;;9.00;9.00;;;;;17.72;46.74;100917.47;5135605;27;45289;-77
2023/07/22 01:56:23;;;;;;;;;11.33;7.33;;;;;17.75;47.01;100933.34;5117960;27;45402;-77
2023/07/22 01:58:48;;;;;;;;;9.33;7.67;;;;;17.74;47.12;100937.03;5099095;27;45388;-77
2023/07/22 02:01:15;;;;;;;;;11.33;8.00;;;;;17.68;46.82;100923.06;5117550;27;45328;-76
2023/07/22 02:03:41;;;;;;;;;8.33;7.00;;;;;17.64;46.68;100905.44;5117358;27;45254;-77
2023/07/22 02:06:06;;;;;;;;;9.67;8.67;;;;;17.72;47.06;100923.69;5118182;27;45176;-76
2023/07/22 02:08:32;;;;;;;;;8.00;6.00;;;;;17.74;46.95;100912.81;5097873;27;47616;-76
2023/07/22 02:11:03;;;;;;;;;7.00;7.00;;;;;17.74;47.01;100924.44;5117471;27;45336;-75
2023/07/22 02:13:30;;;;;;;;;8.67;7.67;;;;;17.71;46.79;100922.00;5127059;27;45608;-77
2023/07/22 02:15:55;;;;;;;;;10.00;9.00;;;;;17.69;47.01;100924.78;5138335;27;45281;-76
2023/07/22 02:18:20;;;;;;;;;7.00;7.00;;;;;17.75;47.05;100927.97;5119326;27;48086;-76
2023/07/22 02:20:45;;;;;;;;;10.00;7.00;;;;;17.63;47.26;100913.66;5137943;27;45432;-77
2023/07/22 02:23:11;;;;;;;;;8.67;7.33;;;;;17.62;47.19;100926.22;5129400;27;45654;-76
2023/07/22 02:25:36;;;;;;;;;9.33;7.67;;;;;17.58;47.27;100916.72;5127719;27;45586;-77
2023/07/22 02:28:02;;;;;;;;;9.00;7.00;;;;;17.61;47.10;100929.91;5137614;27;56767;-77
2023/07/22 02:30:27;;;;;;;;;8.00;8.00;;;;;17.54;47.17;100917.91;5118852;27;45387;-77
2023/07/22 02:32:52;;;;;;;;;7.00;7.00;;;;;17.55;47.09;100910.69;5118746;27;46628;-77
2023/07/22 02:35:18;;;;;;;;;8.00;8.00;;;;;17.59;47.52;100917.56;5137646;27;45579;-76
2023/07/22 02:37:43;;;;;;;;;9.33;8.00;;;;;17.54;47.51;100915.22;5138068;27;45274;-75
2023/07/22 02:40:11;;;;;;;;;11.67;9.67;;;;;17.56;47.42;100928.53;5119093;27;45297;-77
2023/07/22 02:42:36;;;;;;;;;10.00;9.00;;;;;17.52;47.51;100917.19;5118749;27;45740;-76
2023/07/22 02:45:04;;;;;;;;;9.33;7.67;;;;;17.59;46.90;100922.94;5132458;27;45541;-77
2023/07/22 02:47:30;;;;;;;;;8.33;7.33;;;;;17.51;47.43;100912.78;5117084;27;45401;-77
2023/07/22 02:49:55;;;;;;;;;8.67;7.00;;;;;17.52;47.60;100925.25;5117119;27;45286;-76
2023/07/22 02:52:20;;;;;;;;;9.00;9.00;;;;;17.50;47.53;100927.22;5098659;27;45543;-76
2023/07/22 02:55:05;;;;;;;;;6.33;6.33;;;;;17.47;47.52;100919.41;5117857;27;46249;-76
2023/07/22 02:57:30;;;;;;;;;10.67;8.67;;;;;17.49;47.54;100930.03;5137641;27;46459;-75
2023/07/22 02:59:56;;;;;;;;;6.00;6.00;;;;;17.42;48.03;100929.66;5137828;27;45184;-76
2023/07/22 03:02:21;;;;;;;;;7.33;7.33;;;;;17.30;48.31;100912.66;5138058;27;45319;-76
2023/07/22 03:04:47;;;;;;;;;8.67;8.67;;;;;17.22;48.07;100914.25;5136823;27;45238;-75
2023/07/22 03:07:12;;;;;;;;;7.33;7.33;;;;;17.24;48.28;100931.97;5118721;27;47065;-76
2023/07/22 03:09:38;;;;;;;;;9.33;8.33;;;;;17.23;48.30;100929.41;5138071;27;45312;-76
2023/07/22 03:12:03;;;;;;;;;9.00;9.00;;;;;17.20;48.42;100929.66;5136580;27;45226;-76
2023/07/22 03:14:29;;;;;;;;;9.67;9.67;;;;;17.15;48.60;100932.69;5137884;27;45235;-75
2023/07/22 03:16:54;;;;;;;;;9.00;9.00;;;;;17.05;48.63;100916.41;5118708;27;46491;-76
2023/07/22 03:19:19;;;;;;;;;8.00;7.00;;;;;17.06;48.86;100915.47;5120403;27;45230;-77
2023/07/22 03:21:45;;;;;;;;;11.67;7.00;;;;;17.03;48.92;100910.28;5122166;27;55855;-75
2023/07/22 03:24:10;;;;;;;;;8.67;7.33;;;;;17.14;48.88;100922.91;5140012;27;45572;-76
2023/07/22 03:26:35;;;;;;;;;9.00;9.00;;;;;17.20;48.85;100922.44;5140901;27;46092;-75
2023/07/22 03:29:01;;;;;;;;;3.00;3.00;;;;;17.19;48.87;100930.59;5140853;27;46619;-76
2023/07/22 03:31:26;;;;;;;;;7.00;7.00;;;;;17.21;48.85;100937.59;5128527;27;45364;-77
2023/07/22 03:33:52;;;;;;;;;11.00;9.33;;;;;17.20;48.74;100938.56;5135149;27;45340;-78
2023/07/22 03:36:17;;;;;;;;;12.00;8.67;;;;;17.23;48.57;100932.94;5140622;27;45388;-77
2023/07/22 03:38:43;;;;;;;;;5.33;5.33;;;;;17.22;48.84;100936.59;5141095;27;45347;-76
2023/07/22 03:41:08;;;;;;;;;8.33;7.00;;;;;17.02;48.74;100908.59;5141284;27;45494;-75
2023/07/22 03:43:34;;;;;;;;;8.67;7.67;;;;;17.23;48.76;100937.47;5127517;27;45560;-76
2023/07/22 03:45:59;;;;;;;;;7.67;5.33;;;;;17.21;48.73;100951.03;5119985;27;46572;-77
2023/07/22 03:48:24;;;;;;;;;9.67;8.00;;;;;17.22;48.49;100941.13;5119933;27;45382;-76
2023/07/22 03:50:50;;;;;;;;;6.67;6.67;;;;;17.23;48.45;100942.84;5101505;27;45337;-75
2023/07/22 03:53:15;;;;;;;;;11.33;10.00;;;;;17.15;48.46;100931.81;5128533;27;45526;-77
2023/07/22 03:55:41;;;;;;;;;8.67;8.67;;;;;17.15;48.75;100934.50;5140787;27;45274;-77
2023/07/22 03:58:06;;;;;;;;;7.33;7.00;;;;;17.16;48.72;100946.97;5140600;27;45255;-76
2023/07/22 04:00:31;;;;;;;;;9.33;7.67;;;;;16.96;48.82;100918.97;5139348;27;45220;-77
2023/07/22 04:02:57;;;;;;;;;12.00;10.33;;;;;17.10;49.30;100940.25;5119171;27;45634;-76
2023/07/22 04:05:22;;;;;;;;;12.33;12.33;;;;;17.07;49.18;100938.66;5119519;27;45165;-77
2023/07/22 04:07:47;;;;;;;;;15.67;13.00;;;;;16.92;49.32;100909.41;5119488;27;45357;-77
2023/07/22 04:10:13;;;;;;;;;13.33;12.33;;;;;17.07;48.98;100933.28;5101594;27;45709;-76
2023/07/22 04:12:38;;;;;;;;;14.33;12.33;;;;;17.06;49.07;100936.97;5107321;27;45487;-76
2023/07/22 04:15:05;;;;;;;;;16.67;12.00;;;;;16.99;49.00;100924.09;5140053;27;45354;-77
2023/07/22 04:17:30;;;;;;;;;18.67;16.00;;;;;16.88;48.98;100900.75;5121575;27;45758;-77
2023/07/22 04:19:55;;;;;;;;;13.67;13.00;;;;;16.83;48.57;100892.19;5140247;27;45256;-77
2023/07/22 04:22:21;;;;;;;;;14.33;14.00;;;;;17.06;48.76;100922.66;5138346;27;45536;-75
2023/07/22 04:24:48;;;;;;;;;14.67;14.00;;;;;16.94;48.56;100892.22;5121293;27;46032;-77
2023/07/22 04:27:15;;;;;;;;;11.00;11.00;;;;;16.92;48.46;100891.47;5140178;27;45391;-78
2023/07/22 04:29:41;;;;;;;;;12.00;12.00;;;;;17.14;48.37;100927.41;5140158;27;45262;-77
2023/07/22 04:32:08;;;;;;;;;11.67;11.00;;;;;17.18;48.46;100924.38;5131640;27;45607;-76
2023/07/22 04:34:34;;;;;;;;;15.00;12.00;;;;;17.08;48.59;100913.50;5119035;27;46121;-76
2023/07/22 04:36:59;;;;;;;;;11.00;11.00;;;;;17.16;48.60;100925.47;5100252;27;45422;-76
2023/07/22 04:39:25;;;;;;;;;14.00;11.00;;;;;17.22;48.46;100941.97;5119122;27;45344;-76
2023/07/22 04:41:51;;;;;;;;;11.00;9.00;;;;;17.23;48.99;100937.47;5118370;27;45644;-76
2023/07/22 04:44:17;;;;;;;;;13.67;11.33;;;;;17.29;48.77;100942.34;5101029;27;45465;-77
2023/07/22 04:46:42;;;;;;;;;9.33;9.33;;;;;17.34;48.61;100945.53;5092627;27;45363;-76
2023/07/22 04:49:08;;;;;;;;;11.67;11.67;;;;;17.28;48.61;100936.09;5139352;27;45493;-75
2023/07/22 04:51:33;;;;;;;;;11.00;11.00;;;;;17.33;48.79;100947.38;5116817;27;45555;-75
2023/07/22 04:53:59;;;;;;;;;8.00;8.00;;;;;17.30;48.67;100942.22;5129918;27;45332;-76
2023/07/22 04:56:24;;;;;;;;;8.33;7.33;;;;;17.34;49.05;100950.91;5120275;27;45410;-76
2023/07/22 04:58:49;;;;;;;;;11.00;10.00;;;;;17.34;49.01;100951.78;5139682;27;45434;-75
2023/07/22 05:01:15;;;;;;;;;10.00;9.67;;;;;17.30;49.14;100944.91;5140024;27;45298;-77
2023/07/22 05:03:40;;;;;;;;;11.00;9.33;;;;;17.36;49.28;100955.19;5131322;27;45924;-77
2023/07/22 05:06:06;;;;;;;;;12.67;9.00;;;;;17.33;49.13;100941.16;5099979;27;45264;-77
2023/07/22 05:08:31;;;;;;;;;8.67;8.67;;;;;17.31;49.24;100941.25;5099857;27;45414;-75
2023/07/22 05:10:57;;;;;;;;;8.33;8.00;;;;;17.31;48.91;100932.31;5118967;27;45650;-76
2023/07/22 05:13:22;;;;;;;;;13.00;11.00;;;;;17.34;49.05;100924.03;5118299;27;52246;-75
2023/07/22 05:15:47;;;;;;;;;10.33;9.00;;;;;17.45;48.68;100929.44;5128632;27;45392;-75
2023/07/22 05:18:13;;;;;;;;;11.67;11.00;;;;;17.50;48.85;100943.34;5138681;27;58221;-75
2023/07/22 05:20:39;;;;;;;;;12.67;10.00;;;;;17.60;48.61;100935.41;5139470;27;45663;-75
2023/07/22 05:23:04;;;;;;;;;11.00;9.33;;;;;17.76;47.91;100940.44;5138934;27;45347;-76
2023/07/22 05:25:30;;;;;;;;;8.00;8.00;;;;;17.70;47.86;100917.56;5111719;27;45323;-77
2023/07/22 05:27:55;;;;;;;;;9.67;8.67;;;;;17.88;47.53;100934.06;5118399;27;45325;-77
2023/07/22 05:30:20;;;;;;;;;9.33;8.00;;;;;17.99;47.34;100936.75;5099961;27;45497;-77
2023/07/22 05:32:46;;;;;;;;;9.33;8.67;;;;;17.93;47.14;100921.09;5132409;27;46283;-76
2023/07/22 05:35:11;;;;;;;;;8.33;8.33;;;;;18.07;47.33;100944.19;5138175;27;45498;-78
2023/07/22 05:37:36;;;;;;;;;10.00;8.00;;;;;18.45;46.55;100932.94;5139070;27;45289;-77
2023/07/22 05:40:02;;;;;;;;;10.00;9.00;;;;;18.77;45.77;100928.44;5135359;27;45526;-77
2023/07/22 05:42:28;;;;;;;;;8.67;7.00;;;;;18.83;45.61;100927.88;5099419;27;46149;-77
2023/07/22 05:44:57;;;;;;;;;8.33;8.33;;;;;18.80;45.67;100921.91;5100639;27;45679;-76
2023/07/22 05:47:23;;;;;;;;;6.67;6.67;;;;;18.89;45.17;100931.06;5119431;27;45276;-75
2023/07/22 05:49:49;;;;;;;;;9.67;8.33;;;;;18.98;45.42;100935.66;5099997;27;45569;-77
2023/07/22 05:52:14;;;;;;;;;7.33;7.33;;;;;18.96;45.35;100937.63;5117378;27;46587;-75
2023/07/22 05:54:39;;;;;;;;;6.33;6.33;;;;;18.92;45.27;100930.78;5117727;27;45221;-75
2023/07/22 05:57:05;;;;;;;;;11.00;8.67;;;;;18.96;45.25;100926.84;5118129;27;45220;-76
2023/07/22 05:59:31;;;;;;;;;7.67;7.67;;;;;19.01;45.57;100929.97;5118186;27;45330;-76
2023/07/22 06:01:56;;;;;;;;;8.00;6.00;;;;;19.04;45.66;100929.75;5116968;27;45943;-76
2023/07/22 06:04:22;;;;;;;;;8.33;8.33;;;;;19.15;46.17;100930.53;5117458;27;45396;-77
2023/07/22 06:06:47;;;;;;;;;10.67;10.67;;;;;19.08;46.39;100906.91;5117488;27;45410;-75
2023/07/22 06:09:12;;;;;;;;;8.67;8.67;;;;;19.30;46.25;100933.72;5117982;27;45423;-77
2023/07/22 06:11:39;;;;;;;;;9.67;8.33;;;;;19.38;46.74;100938.44;5131741;27;46448;-76
2023/07/22 06:14:04;;;;;;;;;8.67;8.33;;;;;19.20;46.67;100902.31;5117467;27;45412;-76
2023/07/22 06:16:29;;;;;;;;;7.00;7.00;;;;;19.34;46.86;100913.59;5131167;27;45585;-77
2023/07/22 06:18:55;;;;;;;;;11.67;10.00;;;;;19.54;46.87;100943.38;5119946;27;45436;-76
2023/07/22 06:21:20;;;;;;;;;11.00;10.00;;;;;19.58;46.46;100934.03;5138470;27;46526;-77
2023/07/22 06:23:46;;;;;;;;;9.00;9.00;;;;;19.67;47.48;100944.03;5117067;27;55499;-76
2023/07/22 06:26:11;;;;;;;;;10.33;8.00;;;;;19.72;47.35;100947.16;5116999;27;45235;-78
2023/07/22 06:28:36;;;;;;;;;9.33;9.00;;;;;19.52;47.48;100896.75;5117881;27;45332;-77
2023/07/22 06:31:02;;;;;;;;;10.33;10.33;;;;;19.79;47.45;100939.34;5128998;27;46146;-76
2023/07/22 06:33:27;;;;;;;;;11.67;10.67;;;;;19.85;47.69;100945.06;5120652;27;45340;-76
2023/07/22 06:35:53;;;;;;;;;8.00;8.00;;;;;19.84;48.02;100943.38;5124823;27;46594;-77
2023/07/22 06:38:18;;;;;;;;;12.00;10.00;;;;;19.87;47.81;100934.13;5120310;27;45473;-77
2023/07/22 06:40:43;;;;;;;;;9.33;8.00;;;;;19.86;48.42;100918.94;5138146;27;46666;-77
2023/07/22 06:43:08;;;;;;;;;13.33;10.00;;;;;20.02;48.67;100944.41;5136317;27;50694;-78
2023/07/22 06:45:34;;;;;;;;;9.67;9.00;;;;;19.95;48.95;100927.06;5137126;27;45343;-77
2023/07/22 06:47:59;;;;;;;;;9.33;9.33;;;;;19.91;49.27;100917.50;5138230;27;45216;-77
2023/07/22 06:50:25;;;;;;;;;12.00;10.67;;;;;20.06;49.57;100917.16;5137937;27;45283;-77
2023/07/22 06:52:50;;;;;;;;;13.67;9.33;;;;;20.47;49.12;100943.97;5126233;27;45215;-77
2023/07/22 06:55:16;;;;;;;;;11.00;10.00;;;;;20.67;48.52;100923.19;5119968;27;45455;-76
2023/07/22 06:57:41;;;;;;;;;4.00;4.00;;;;;20.78;47.86;100908.66;5121105;27;45385;-77
2023/07/22 07:00:09;;;;;;;;;7.00;7.00;;;;;20.91;47.82;100930.84;5102262;27;45646;-77
2023/07/22 07:02:35;;;;;;;;;11.00;10.00;;;;;20.78;47.65;100930.28;5120039;27;45461;-75
2023/07/22 07:05:00;;;;;;;;;9.33;8.33;;;;;20.71;48.08;100937.28;5102033;27;45361;-76
2023/07/22 07:07:25;;;;;;;;;10.67;9.00;;;;;20.66;47.69;100926.88;5101323;27;45424;-78
2023/07/22 07:09:51;;;;;;;;;7.00;7.00;;;;;20.66;48.12;100926.88;5120582;27;45446;-78
2023/07/22 07:12:16;;;;;;;;;10.33;6.67;;;;;20.67;48.30;100927.72;5119616;27;45291;-75
2023/07/22 07:14:42;;;;;;;;;9.00;9.00;;;;;20.70;48.37;100927.44;5101921;27;45359;-76
2023/07/22 07:17:07;;;;;;;;;10.67;9.33;;;;;20.64;48.67;100915.34;5121737;27;45496;-76
2023/07/22 07:19:32;;;;;;;;;9.33;9.00;;;;;20.64;48.88;100939.69;5119782;27;46403;-77
2023/07/22 07:21:58;;;;;;;;;9.33;9.33;;;;;20.74;48.37;100927.03;5119983;27;45289;-76
2023/07/22 07:24:24;;;;;;;;;7.33;7.33;;;;;20.82;48.33;100929.00;5120815;27;45307;-77
2023/07/22 07:26:49;;;;;;;;;6.33;6.33;;;;;20.86;48.05;100930.44;5120584;27;45230;-77
2023/07/22 07:29:14;;;;;;;;;9.33;9.33;;;;;20.83;47.63;100933.41;5125507;27;45278;-75
2023/07/22 07:31:40;;;;;;;;;10.00;8.33;;;;;20.83;47.49;100934.28;5140865;27;45234;-78
2023/07/22 07:34:05;;;;;;;;;10.67;10.67;;;;;20.88;47.63;100941.94;5104462;27;45330;-77
2023/07/22 07:36:32;;;;;;;;;8.00;8.00;;;;;20.85;47.35;100936.84;5140982;27;45421;-78
2023/07/22 07:38:57;;;;;;;;;14.00;9.00;;;;;20.86;47.40;100938.53;5136457;27;45437;-76
2023/07/22 07:41:22;;;;;;;;;9.67;8.00;;;;;20.76;47.69;100935.84;5101589;27;45471;-77
2023/07/22 07:43:48;;;;;;;;;10.00;9.67;;;;;20.65;47.86;100946.78;5119438;27;45346;-75
2023/07/22 07:46:27;;;;;;;;;6.67;6.67;;;;;20.55;47.94;100935.97;5120111;27;45617;-77
2023/07/22 07:49:01;;;;;;;;;9.67;9.67;;;;;20.65;47.99;100951.34;5131233;27;45224;-76
2023/07/22 07:51:29;;;;;;;;;11.00;11.00;;;;;20.61;47.49;100926.47;5122080;27;45497;-77
2023/07/22 07:53:55;;;;;;;;;9.33;9.33;;;;;20.56;47.66;100918.75;5126039;27;45309;-78
2023/07/22 07:56:22;;;;;;;;;9.00;7.33;;;;;20.74;47.83;100928.88;5101609;27;45599;-76
2023/07/22 07:58:49;;;;;;;;;10.00;9.67;;;;;20.90;47.59;100942.66;5119487;27;45406;-75
2023/07/22 08:01:15;;;;;;;;;9.67;8.33;;;;;20.83;47.31;100925.28;5119531;27;45438;-76
2023/07/22 08:03:42;;;;;;;;;13.67;10.00;;;;;20.94;47.30;100941.34;5119711;27;45192;-77
2023/07/22 08:06:08;;;;;;;;;12.33;11.00;;;;;20.88;47.11;100931.13;5118612;27;45238;-77
2023/07/22 08:08:34;;;;;;;;;10.00;9.00;;;;;21.06;46.72;100944.75;5119076;27;46237;-75
2023/07/22 08:11:04;;;;;;;;;6.33;6.33;;;;;21.25;46.38;100944.78;5123700;27;45365;-76
2023/07/22 08:13:33;;;;;;;;;12.00;9.00;;;;;21.46;45.87;100933.72;5140163;27;45427;-78
2023/07/22 08:15:59;;;;;;;;;7.00;7.00;;;;;21.53;45.50;100942.97;5137749;27;45885;-78
2023/07/22 08:18:24;;;;;;;;;9.00;9.00;;;;;21.47;45.56;100920.03;5100783;27;46500;-78
2023/07/22 08:20:52;;;;;;;;;8.33;8.33;;;;;21.69;45.11;100940.47;5119081;27;45490;-77
2023/07/22 08:23:17;;;;;;;;;10.33;9.67;;;;;21.73;44.94;100922.06;5111129;27;45607;-77
2023/07/22 08:25:43;;;;;;;;;9.00;9.00;;;;;21.84;44.97;100932.69;5133743;27;45557;-80
2023/07/22 08:28:08;;;;;;;;;15.33;8.33;;;;;21.75;44.31;100912.81;5119595;27;45410;-77
2023/07/22 08:30:35;;;;;;;;;10.67;10.67;;;;;21.94;44.27;100933.50;5100744;27;45426;-78
2023/07/22 08:33:00;;;;;;;;;9.67;8.00;;;;;22.00;44.17;100922.06;5107360;27;45442;-80
2023/07/22 08:35:26;;;;;;;;;7.67;7.67;;;;;21.72;43.25;100891.44;5131659;27;45522;-77
2023/07/22 08:37:51;;;;;;;;;6.67;6.67;;;;;21.71;43.89;100902.41;5130911;27;45625;-78
2023/07/22 08:40:18;;;;;;;;;9.00;8.67;;;;;21.56;43.59;100863.31;5118108;27;45350;-76
2023/07/22 08:42:45;;;;;;;;;8.33;8.33;;;;;21.75;44.12;100922.78;5126579;27;45359;-76
2023/07/22 08:45:12;;;;;;;;;6.67;6.67;;;;;21.55;43.84;100903.06;5130730;27;45463;-78
2023/07/22 08:47:47;;;;;;;;;8.00;8.00;;;;;21.61;44.17;100928.69;5099449;27;47451;-76
2023/07/22 08:50:19;;;;;;;;;8.00;8.00;;;;;21.50;44.49;100905.38;5118611;27;45419;-77
2023/07/22 08:52:46;;;;;;;;;6.67;6.67;;;;;21.55;44.46;100913.03;5118803;27;45333;-76
2023/07/22 08:55:12;;;;;;;;;9.33;8.00;;;;;21.43;44.05;100893.44;5108540;27;45544;-76
2023/07/22 08:57:39;;;;;;;;;10.33;8.33;;;;;21.65;44.18;100912.00;5120569;27;47445;-77
2023/07/22 09:00:06;;;;;;;;;9.67;9.67;;;;;21.57;44.54;100894.81;5120667;27;46064;-76
2023/07/22 09:02:33;;;;;;;;;10.00;8.67;;;;;21.76;43.93;100910.97;5122961;27;45491;-77
2023/07/22 09:04:59;;;;;;;;;9.33;8.00;;;;;21.85;43.85;100915.44;5119250;27;45529;-77
2023/07/22 09:07:25;;;;;;;;;8.00;8.00;;;;;21.92;43.37;100904.88;5117602;27;45580;-77
2023/07/22 09:09:53;;;;;;;;;6.33;6.33;;;;;21.97;42.90;100908.81;5118368;27;45327;-77
2023/07/22 09:12:21;;;;;;;;;11.33;6.67;;;;;21.91;42.00;100904.03;5118508;27;45536;-79
2023/07/22 09:14:49;;;;;;;;;5.67;5.67;;;;;22.00;41.83;100908.50;5120255;27;45435;-76
2023/07/22 09:17:14;;;;;;;;;8.67;6.00;;;;;22.03;41.68;100891.97;5119985;27;48521;-76
2023/07/22 09:19:40;;;;;;;;;7.00;7.00;;;;;22.10;41.83;100894.94;5121353;27;45231;-74
2023/07/22 09:22:07;;;;;;;;;9.33;7.00;;;;;22.19;41.28;100885.91;5118478;27;45450;-77
2023/07/22 09:24:33;;;;;;;;;7.00;7.00;;;;;22.41;41.25;100906.28;5118906;27;45501;-77
2023/07/22 09:26:58;;;;;;;;;6.33;5.67;;;;;22.45;41.49;100902.25;5118016;27;45642;-78
2023/07/22 09:29:39;;;;;;;;;8.33;5.67;;;;;22.40;40.74;100879.31;5133728;27;45486;-77
2023/07/22 09:32:05;;;;;;;;;7.00;7.00;;;;;22.51;40.04;100889.94;5138964;27;45399;-77
2023/07/22 09:34:30;;;;;;;;;5.67;5.67;;;;;22.56;39.81;100888.47;5137109;27;45563;-77
2023/07/22 09:37:00;;;;;;;;;6.67;6.67;;;;;22.65;39.88;100886.66;5138641;27;46007;-77
2023/07/22 09:39:26;;;;;;;;;7.33;6.33;;;;;22.60;39.89;100881.72;5138715;27;45423;-77
2023/07/22 09:41:55;;;;;;;;;4.67;4.67;;;;;22.48;39.62;100877.53;5138920;27;45274;-75
2023/07/22 09:44:20;;;;;;;;;6.00;4.75;;;;;22.52;39.51;100884.34;5138944;27;45249;-76
2023/07/22 09:46:50;;;;;;;;;6.33;6.33;;;;;22.56;39.25;100860.50;5138564;27;45329;-77
2023/07/22 09:49:17;;;;;;;;;4.67;4.67;;;;;22.73;39.62;100878.59;5138568;27;45468;-77
2023/07/22 09:51:43;;;;;;;;;6.00;6.00;;;;;22.89;39.41;100883.31;5119826;27;45384;-77
2023/07/22 09:54:09;;;;;;;;;5.33;5.33;;;;;22.87;39.19;100850.94;5138505;27;45512;-77
2023/07/22 09:56:45;;;;;;;;;5.00;5.00;;;;;22.96;39.01;100878.97;5138737;27;45398;-77
2023/07/22 09:59:11;;;;;;;;;10.67;6.00;;;;;23.05;38.98;100861.75;5138015;27;45376;-76
2023/07/22 10:01:39;;;;;;;;;5.67;4.67;;;;;23.20;38.23;100867.44;5138459;27;45564;-76
2023/07/22 10:04:05;;;;;;;;;9.67;5.00;;;;;23.36;38.43;100864.81;5120405;27;45544;-76
2023/07/22 10:06:32;;;;;;;;;5.33;5.33;;;;;23.49;37.96;100867.91;5138469;27;45358;-77
2023/07/22 10:09:08;;;;;;;;;5.67;5.67;;;;;23.80;37.22;100872.81;5119617;27;45878;-77
2023/07/22 10:11:35;;;;;;;;;6.00;6.00;;;;;24.20;36.56;100877.50;5138641;27;45308;-76
2023/07/22 10:14:02;;;;;;;;;5.33;5.33;;;;;24.54;35.47;100871.09;5138530;27;45598;-76
2023/07/22 10:16:28;;;;;;;;;5.67;5.67;;;;;24.73;35.00;100869.91;5138051;27;45365;-75
2023/07/22 10:18:55;;;;;;;;;5.33;5.33;;;;;24.65;35.10;100868.06;5138138;27;45398;-76
2023/07/22 10:21:21;;;;;;;;;4.75;4.75;;;;;24.57;35.66;100860.72;5119683;27;45409;-76
2023/07/22 10:23:48;;;;;;;;;6.50;6.50;;;;;24.46;35.37;100863.78;5138158;27;45618;-76
2023/07/22 10:26:17;;;;;;;;;4.50;4.25;;;;;24.38;35.67;100864.66;5104584;27;46947;-76
2023/07/22 10:28:45;;;;;;;;;5.33;5.33;;;;;24.37;36.23;100859.38;5116843;27;45614;-77
2023/07/22 10:31:12;;;;;;;;;3.00;3.00;;;;;24.55;35.93;100862.78;5113463;27;45398;-78
2023/07/22 10:33:38;;;;;;;;;6.67;6.67;;;;;24.69;36.13;100859.38;5117663;27;45593;-76
2023/07/22 10:36:17;;;;;;;;;6.00;6.00;;;;;24.94;35.45;100867.50;5117441;27;45840;-76
2023/07/22 10:38:43;;;;;;;;;8.25;6.50;;;;;24.95;35.28;100839.28;5117368;27;45366;-77
2023/07/22 10:41:18;;;;;;;;;4.75;4.75;;;;;24.97;35.21;100839.94;5117281;27;45459;-77
2023/07/22 10:43:55;;;;;;;;;5.75;5.75;;;;;24.72;34.87;100798.34;5117754;27;45401;-77
2023/07/22 10:46:43;;;;;;;;;6.25;5.25;;;;;25.14;34.97;100844.38;5116852;27;47126;-78
2023/07/22 10:49:12;;;;;;;;;5.25;5.25;;;;;25.37;34.38;100851.78;5117180;27;45448;-74
2023/07/22 10:51:38;;;;;;;;;5.00;5.00;;;;;25.38;33.72;100842.56;5098881;27;45499;-77
2023/07/22 10:54:11;;;;;;;;;6.00;5.00;;;;;25.62;33.49;100841.63;5117600;27;45354;-76
2023/07/22 10:56:36;;;;;;;;;5.00;5.00;;;;;25.68;33.43;100811.81;5117227;27;46218;-78
2023/07/22 10:59:03;;;;;;;;;6.00;5.00;;;;;25.95;32.23;100821.38;5117096;27;45380;-76
2023/07/22 11:01:28;;;;;;;;;4.50;4.50;;;;;26.23;32.93;100848.97;5132772;27;45569;-75
2023/07/22 11:04:12;;;;;;;;;7.50;6.00;;;;;26.37;32.73;100840.03;5133454;27;45502;-78
2023/07/22 11:06:59;;;;;;;;;6.50;5.50;;;;;26.60;32.23;100828.25;5131310;27;45468;-78
2023/07/22 11:09:27;;;;;;;;;5.50;5.50;;;;;26.69;31.71;100824.38;5103464;27;45445;-78
2023/07/22 11:12:18;;;;;;;;;4.50;4.50;;;;;26.61;31.42;100808.13;5119199;27;45532;-79
2023/07/22 11:14:52;;;;;;;;;5.75;5.00;;;;;26.76;31.31;100806.25;5137494;27;45452;-76
2023/07/22 11:17:28;;;;;;;;;5.75;4.75;;;;;27.01;30.63;100813.19;5135283;27;45466;-75
2023/07/22 11:19:55;;;;;;;;;4.50;4.50;;;;;27.10;30.57;100792.09;5097899;27;45640;-76